CDT,Max TemperatureF,Mean TemperatureF,Min TemperatureF,Max Dew PointF,MeanDew PointF,Min DewpointF,Max Humidity, Mean Humidity, Min Humidity, Max Sea Level PressureIn, Mean Sea Level PressureIn, Min Sea Level PressureIn, Max VisibilityMiles, Mean VisibilityMiles, Min VisibilityMiles, Max Wind SpeedMPH, Mean Wind SpeedMPH, Max Gust SpeedMPH,PrecipitationIn, CloudCover, Events, WindDirDegrees
2013-4-1,41,34,26,25,18,16,70,54,36,30.23,30.14,29.97,10,10,8,17,11,26,0.00,1,,308
2013-4-2,46,34,21,21,17,14,80,53,29,30.33,30.28,30.24,10,10,10,17,8,24,0.00,0,,302
2013-4-3,48,34,21,25,18,12,86,53,27,30.46,30.38,30.31,10,10,9,12,5,,0.00,0,,84
2013-4-4,60,42,24,36,26,18,74,51,29,30.30,30.13,30.00,10,10,7,16,7,22,0.00,1,,263
2013-4-5,55,44,33,32,26,19,75,52,26,30.24,30.14,30.06,10,10,10,20,10,25,0.00,1,,57
2013-4-6,69,52,35,48,33,18,82,52,31,30.09,29.81,29.61,10,10,9,26,12,34,0.06,4,Thunderstorm,164
2013-4-7,62,48,37,45,39,34,87,69,45,29.97,29.88,29.69,10,9,7,22,11,30,0.06,2,,307
2013-4-8,71,56,42,55,49,36,94,78,53,29.91,29.76,29.52,10,8,2,26,12,31,0.49,4,,126
2013-4-9,66,54,41,59,46,36,94,83,76,29.93,29.87,29.80,10,7,3,23,16,30,0.03,7,Thunderstorm,69
2013-4-10,42,40,37,39,37,32,93,87,81,30.03,29.88,29.63,10,9,4,40,17,67,0.97,8,Thunderstorm,57
2013-4-11,50,42,37,45,39,32,93,88,81,29.71,29.64,29.58,10,7,1,30,18,39,0.05,8,,97
2013-4-12,44,40,35,37,32,28,93,76,65,29.89,29.72,29.59,10,10,3,28,13,33,0.00,8,,269
2013-4-13,48,40,33,36,30,27,87,69,50,29.99,29.94,29.88,10,10,6,24,14,29,0.00,7,,282
2013-4-14,75,56,37,54,42,32,87,63,38,29.98,29.76,29.58,10,10,10,23,13,30,0.00,4,,119
2013-4-15,64,53,42,54,46,37,94,80,42,30.02,29.83,29.61,10,9,1,24,8,31,0.21,7,Thunderstorm,274
2013-4-16,53,44,35,45,36,30,93,69,50,30.25,30.15,29.99,10,10,10,18,7,26,0.01,4,,354
2013-4-17,53,46,41,52,40,34,100,84,66,30.27,30.07,29.74,10,9,1,30,15,38,2.24,7,Thunderstorm,79
2013-4-18,62,50,39,61,49,30,100,91,70,29.77,29.58,29.42,10,9,3,30,13,38,1.69,6,Thunderstorm,198
2013-4-19,39,36,33,30,29,27,81,74,65,29.98,29.70,29.54,10,10,9,33,26,40,0.00,7,,276
2013-4-20,48,38,28,28,26,23,93,63,37,30.38,30.23,29.99,10,10,10,16,9,17,0.00,2,,275
2013-4-21,57,44,33,37,32,27,81,62,47,30.48,30.37,30.27,10,10,10,17,9,25,0.00,2,,135
2013-4-22,68,52,39,43,38,34,81,56,35,30.30,30.16,30.02,10,10,10,14,7,20,0.00,2,,144
2013-4-23,51,46,39,48,40,34,100,88,81,30.06,29.98,29.94,10,9,2,18,7,23,0.27,8,,326
2013-4-24,53,44,37,34,29,27,81,58,38,30.11,30.07,29.99,10,10,10,18,10,24,0.00,4,,291
2013-4-25,53,45,37,37,28,21,87,56,30,30.31,30.22,30.08,10,10,9,25,12,38,0.02,2,,266
2013-4-26,68,52,37,46,39,28,75,57,43,30.31,30.27,30.23,10,10,10,15,7,26,0.00,2,,188
2013-4-27,66,54,42,48,45,39,93,68,46,30.29,30.16,30.00,10,9,2,14,4,18,0.00,4,,159
2013-4-28,71,60,48,52,48,46,93,68,43,30.00,29.90,29.82,10,10,5,7,2,,0.00,5,,267
2013-4-29,77,62,46,57,52,45,93,68,47,29.91,29.82,29.72,10,9,3,16,5,24,0.00,0,,160
2013-4-30,87,74,60,61,54,48,83,54,27,29.91,29.79,29.73,10,10,10,17,8,26,0.00,0,,190